Terminal Aerodrome Forecast
Issued by NWS Knoxville/Tri Cities, TN

Home | Current Version | Previous Version | Text Only | Print | Product List | Glossary On
Versions: 1 2 3 4 5 6 7 8 9 10 11 12 13 14 15 16 17 18 19 20 21 22 23 24 25 26 27 28 29 30 31 32 33 34 35 36 37 38 39
000
FTUS44 KMRX 012320
TAFCHA
TAF
KCHA 012320Z 0200/0224 19008KT P6SM VCTS BKN040CB
     FM020200 23003KT P6SM BKN040
     FM020600 00000KT 5SM BR BKN030
     FM020800 00000KT 3SM BR BKN020
      TEMPO 0209/0212 2SM BR BKN005
     FM021400 33004KT P6SM BKN040=

USA.gov is the U.S. government's official web portal to all federal, state and local government web resources and services.